Погода Нарсингдина 2 недели

Дакка, Бангладеш

03 - 15 февраля
  • 03февраля
    Сегодня
    +14°
    +27°
    Ясно и безоблачно
    ВремяПогодаТемператураВлажностьДавлениеВетер, м/сВероятность осадков
    00:00Небольшая облачность+18°C82 %760 мм2.4 м/с2 %
    03:00Небольшая облачность+17°C91 %759 мм2.3 м/с2 %
    06:00Небольшая облачность+15°C94 %760 мм2.1 м/с2 %
    09:00Ясно и безоблачно+18°C80 %761 мм2.0 м/с2 %
    12:00Ясно и безоблачно+23°C53 %760 мм2.1 м/с2 %
    15:00Ясно и безоблачно+26°C43 %757 мм2.1 м/с2 %
    18:00Ясно и безоблачно+22°C64 %757 мм2.4 м/с2 %
    21:00Ясно и безоблачно+20°C73 %759 мм2.5 м/с2 %
  • 04февраля
    Суббота
    +15°
    +26°
    Ясно и безоблачно
    ВремяПогодаТемператураВлажностьДавлениеВетер, м/сВероятность осадков
    00:00Ясно и безоблачно+18°C83 %759 мм2.3 м/с2 %
    03:00Ясно и безоблачно+17°C89 %758 мм2.3 м/с2 %
    06:00Ясно и безоблачно+15°C95 %759 мм2.2 м/с2 %
    09:00Ясно и безоблачно+18°C79 %760 мм1.5 м/с2 %
    12:00Ясно и безоблачно+23°C55 %759 мм1.7 м/с2 %
    15:00Ясно и безоблачно+26°C49 %756 мм1.7 м/с2 %
    18:00Ясно и безоблачно+22°C71 %756 мм2.0 м/с2 %
    21:00Ясно и безоблачно+19°C80 %758 мм2.3 м/с2 %
  • 05февраля
    Воскресенье
    +17°
    +27°
    Ясно и безоблачно
    ВремяПогодаТемператураВлажностьДавлениеВетер, м/сВероятность осадков
    00:00Практически безоблачно+18°C88 %758 мм2.4 м/с2 %
    03:00Практически безоблачно+17°C91 %757 мм2.3 м/с2 %
    06:00Практически безоблачно+16°C94 %758 мм1.2 м/с2 %
    09:00Ясно и безоблачно+18°C76 %760 мм0.7 м/с2 %
    12:00Ясно и безоблачно+23°C50 %759 мм2.0 м/с2 %
    15:00Ясно и безоблачно+26°C42 %757 мм2.9 м/с2 %
    18:00Ясно и безоблачно+22°C62 %757 мм2.4 м/с2 %
    21:00Ясно и безоблачно+20°C73 %759 мм2.7 м/с2 %
  • 06февраля
    Понедельник
    +15°
    +26°
    Ясно и безоблачно
    ВремяПогодаТемператураВлажностьДавлениеВетер, м/сВероятность осадков
    00:00Ясно и безоблачно+18°C81 %759 мм2.7 м/с2 %
    03:00Ясно и безоблачно+18°C81 %758 мм0.3 м/с2 %
    06:00Ясно и безоблачно+17°C89 %758 мм0.9 м/с2 %
    09:00Ясно и безоблачно+20°C71 %760 мм0.5 м/с2 %
    12:00Ясно и безоблачно+23°C49 %759 мм1.9 м/с2 %
    15:00Ясно и безоблачно+26°C42 %756 мм3.1 м/с2 %
    18:00Ясно и безоблачно+22°C58 %756 мм2.6 м/с2 %
    21:00Ясно и безоблачно+20°C71 %757 мм2.5 м/с2 %
Мы используем cookies
Соглашаюсь